Time;durP1;ratioP1;P1;durP2;ratioP2;P2;SDS_P1;SDS_P2;PMS_P1;PMS_P2;Temp;Humidity;BMP_temperature;BMP_pressure;BME280_temperature;BME280_humidity;BME280_pressure;Samples;Min_cycle;Max_cycle;Signal;HPM_P1;HPM_P2
2023/07/03 00:00:17;;;;;;;0.30;0.30;;;;;;;16.25;65.81;97780.22;4857958;29;20075;-82
2023/07/03 00:02:51;;;;;;;0.40;0.40;;;;;;;16.27;65.85;97786.16;4841574;29;20414;-82
2023/07/03 00:05:20;;;;;;;0.40;0.40;;;;;;;16.28;65.85;97763.28;4841709;29;20081;-83
2023/07/03 00:07:50;;;;;;;0.40;0.40;;;;;;;16.35;65.74;97779.16;4855508;29;20100;-82
2023/07/03 00:10:17;;;;;;;0.40;0.40;;;;;;;16.41;65.62;97770.56;4840773;29;20103;-79
2023/07/03 00:12:44;;;;;;;0.32;0.32;;;;;;;16.44;65.27;97769.94;4840479;29;20505;-81
2023/07/03 00:15:12;;;;;;;0.40;0.40;;;;;;;16.53;65.23;97775.41;4840071;29;20062;-82
2023/07/03 00:17:39;;;;;;;0.32;0.32;;;;;;;16.53;65.24;97761.78;4839606;29;20144;-82
2023/07/03 00:20:07;;;;;;;0.30;0.30;;;;;;;16.58;65.13;97764.38;4838390;29;20088;-81
2023/07/03 00:22:34;;;;;;;0.30;0.30;;;;;;;16.57;65.27;97762.00;4840061;29;20110;-82
2023/07/03 00:25:01;;;;;;;0.40;0.40;;;;;;;16.58;65.40;97760.84;4842002;29;20072;-82
2023/07/03 00:27:28;;;;;;;0.40;0.40;;;;;;;16.50;65.64;97758.91;4843183;29;20479;-82
2023/07/03 00:29:55;;;;;;;0.30;0.30;;;;;;;16.54;65.81;97766.13;4811958;29;20049;-81
2023/07/03 00:32:23;;;;;;;0.30;0.30;;;;;;;16.52;65.90;97765.66;4843274;29;20058;-82
2023/07/03 00:34:50;;;;;;;0.30;0.30;;;;;;;16.52;66.32;97765.66;4843287;29;20072;-81
2023/07/03 00:37:21;;;;;;;0.38;0.38;;;;;;;16.53;66.51;97763.72;4826771;29;20050;-81
2023/07/03 00:39:48;;;;;;;0.30;0.30;;;;;;;16.56;66.55;97765.81;4826756;29;20085;-81
2023/07/03 00:42:15;;;;;;;0.30;0.30;;;;;;;16.57;66.44;97748.38;4842885;29;20058;-81
2023/07/03 00:44:45;;;;;;;0.30;0.30;;;;;;;16.55;66.77;97759.56;4842944;29;20065;-81
2023/07/03 00:47:13;;;;;;;0.40;0.40;;;;;;;16.54;67.00;97757.19;4826487;29;20056;-81
2023/07/03 00:49:40;;;;;;;0.30;0.30;;;;;;;16.52;67.39;97767.56;4842783;29;20144;-81
2023/07/03 00:52:07;;;;;;;0.30;0.30;;;;;;;16.51;67.64;97765.94;4841571;29;20403;-81
2023/07/03 00:54:34;;;;;;;0.30;0.30;;;;;;;16.46;68.13;97766.91;4826900;29;20064;-82
2023/07/03 00:57:01;;;;;;;0.30;0.30;;;;;;;16.38;68.61;97762.19;4843173;29;20102;-81
2023/07/03 00:59:32;;;;;;;0.30;0.30;;;;;;;16.32;69.09;97768.91;4842786;29;20049;-82
2023/07/03 01:02:15;;;;;;;0.30;0.30;;;;;;;16.24;69.89;97760.38;4826260;29;20487;-81
2023/07/03 01:05:04;;;;;;;0.40;0.40;;;;;;;16.15;70.69;97777.75;4826345;29;20064;-82
2023/07/03 01:07:33;;;;;;;0.40;0.40;;;;;;;16.12;70.99;97768.31;4826287;29;20503;-80
2023/07/03 01:10:03;;;;;;;0.40;0.40;;;;;;;16.14;71.39;97759.84;4826179;29;20082;-81
2023/07/03 01:12:33;;;;;;;0.30;0.30;;;;;;;16.16;71.87;97773.94;4841748;29;20073;-82
2023/07/03 01:15:02;;;;;;;0.40;0.40;;;;;;;16.15;72.28;97772.31;4842075;29;20434;-83
2023/07/03 01:17:34;;;;;;;0.30;0.30;;;;;;;16.14;72.73;97770.72;4826571;29;20567;-81
2023/07/03 01:20:04;;;;;;;0.40;0.40;;;;;;;16.14;72.72;97770.72;4841994;29;20722;-81
2023/07/03 01:22:31;;;;;;;0.35;0.35;;;;;;;16.13;72.98;97775.38;4811080;29;20456;-80
2023/07/03 01:25:00;;;;;;;0.30;0.30;;;;;;;16.13;73.27;97774.53;4842452;29;20073;-81
2023/07/03 01:27:31;;;;;;;0.40;0.40;;;;;;;16.09;73.76;97773.56;4827251;29;20114;-82
2023/07/03 01:29:59;;;;;;;0.38;0.38;;;;;;;16.10;73.91;97767.81;4826358;29;20501;-81
2023/07/03 01:32:30;;;;;;;0.30;0.30;;;;;;;16.14;74.23;97770.72;4842186;29;20498;-81
2023/07/03 01:34:57;;;;;;;0.40;0.40;;;;;;;16.14;74.31;97768.00;4837251;29;20065;-82
2023/07/03 01:37:26;;;;;;;0.35;0.35;;;;;;;16.14;74.26;97776.97;4825804;29;20049;-81
2023/07/03 01:39:58;;;;;;;0.40;0.40;;;;;;;16.13;75.02;97780.81;4811274;29;20577;-80
2023/07/03 01:42:28;;;;;;;0.40;0.40;;;;;;;16.04;75.43;97767.13;4810966;29;20060;-82
2023/07/03 01:44:55;;;;;;;0.32;0.32;;;;;;;15.98;75.76;97767.59;4826479;29;20093;-81
2023/07/03 01:47:22;;;;;;;0.30;0.30;;;;;;;15.88;76.09;97773.28;4844135;29;20050;-82
2023/07/03 01:49:49;;;;;;;0.40;0.40;;;;;;;15.81;77.12;97773.69;4858808;29;20057;-82
2023/07/03 01:52:39;;;;;;;0.38;0.38;;;;;;;15.82;78.00;97781.56;4859336;29;20118;-81
2023/07/03 01:55:24;;;;;;;0.40;0.40;;;;;;;15.77;78.65;97787.13;4843847;29;20090;-81
2023/07/03 01:57:52;;;;;;;0.40;0.40;;;;;;;15.72;79.01;97783.69;4843671;29;20052;-82
2023/07/03 02:00:40;;;;;;;0.40;0.40;;;;;;;15.70;79.69;97777.75;4858738;29;20050;-81
2023/07/03 02:03:17;;;;;;;0.40;0.40;;;;;;;15.69;80.06;97776.97;4859391;29;20053;-82
2023/07/03 02:05:45;;;;;;;0.40;0.40;;;;;;;15.71;80.40;97773.94;4860506;29;20060;-83
2023/07/03 02:08:13;;;;;;;0.40;0.40;;;;;;;15.80;80.42;97788.44;4837459;29;20046;-80
2023/07/03 02:10:43;;;;;;;0.40;0.40;;;;;;;15.83;80.55;97787.81;4825626;29;20106;-80
2023/07/03 02:13:10;;;;;;;0.40;0.40;;;;;;;15.92;80.63;97791.38;4824798;29;20058;-81
2023/07/03 02:15:37;;;;;;;0.40;0.40;;;;;;;16.00;80.37;97796.09;4840301;29;20114;-81
2023/07/03 02:18:04;;;;;;;0.40;0.40;;;;;;;16.01;80.92;97797.69;4840205;29;20050;-80
2023/07/03 02:20:52;;;;;;;0.30;0.30;;;;;;;16.02;81.31;97802.00;4840525;29;20552;-81
2023/07/03 02:23:19;;;;;;;0.30;0.30;;;;;;;16.08;81.20;97793.72;4839953;29;20060;-80
2023/07/03 02:25:49;;;;;;;0.40;0.40;;;;;;;16.14;81.39;97798.75;4841392;29;20065;-81
2023/07/03 02:28:16;;;;;;;0.40;0.40;;;;;;;16.12;81.84;97805.59;4841191;29;20049;-81
2023/07/03 02:30:43;;;;;;;0.30;0.30;;;;;;;16.00;82.16;97801.53;4841112;29;20140;-81
2023/07/03 02:33:13;;;;;;;0.40;0.40;;;;;;;16.04;82.59;97810.69;4841064;29;20597;-80
2023/07/03 02:35:41;;;;;;;0.40;0.40;;;;;;;16.06;82.84;97812.31;4841174;29;20056;-80
2023/07/03 02:38:10;;;;;;;0.40;0.40;;;;;;;16.06;83.25;97815.81;4841122;29;20157;-78
2023/07/03 02:40:39;;;;;;;0.40;0.40;;;;;;;16.15;83.64;97815.88;4841490;29;20064;-82
2023/07/03 02:43:06;;;;;;;0.30;0.30;;;;;;;16.22;83.71;97821.69;4840649;29;20111;-81
2023/07/03 02:45:40;;;;;;;0.30;0.30;;;;;;;16.25;83.91;97815.63;4824356;29;20575;-81
2023/07/03 02:48:11;;;;;;;0.40;0.40;;;;;;;16.24;84.78;97811.28;4846863;29;20140;-81
2023/07/03 02:50:42;;;;;;;0.40;0.40;;;;;;;16.25;85.00;97811.00;4828348;29;20480;-80
2023/07/03 02:53:10;;;;;;;0.30;0.30;;;;;;;16.21;85.86;97815.44;4859028;29;20518;-81
2023/07/03 02:55:38;;;;;;;0.40;0.40;;;;;;;16.13;86.52;97823.53;4858160;29;20058;-81
2023/07/03 02:58:06;;;;;;;0.38;0.38;;;;;;;16.08;87.23;97815.50;4857958;29;20053;-81
2023/07/03 03:00:36;;;;;;;0.40;0.40;;;;;;;16.10;87.95;97829.59;4858158;29;20430;-80
2023/07/03 03:03:03;;;;;;;0.40;0.40;;;;;;;16.12;88.86;97836.34;4857964;29;20050;-80
2023/07/03 03:05:30;;;;;;;0.40;0.40;;;;;;;16.24;88.95;97841.25;4859087;29;20053;-80
2023/07/03 03:07:58;;;;;;;0.30;0.30;;;;;;;16.38;88.97;97843.88;4853565;29;20058;-82
2023/07/03 03:10:44;;;;;;;0.40;0.40;;;;;;;16.45;88.62;97823.25;4837348;29;20146;-81
2023/07/03 03:13:14;;;;;;;0.40;0.40;;;;;;;16.63;88.48;97821.44;4840422;29;20053;-81
2023/07/03 03:15:43;;;;;;;0.30;0.30;;;;;;;16.59;88.47;97838.75;4839926;29;20391;-82
2023/07/03 03:18:10;;;;;;;0.40;0.40;;;;;;;16.53;89.02;97837.25;4840845;29;20548;-81
2023/07/03 03:20:38;;;;;;;0.40;0.40;;;;;;;16.52;89.71;97841.09;4840706;29;20446;-82
2023/07/03 03:23:05;;;;;;;0.40;0.40;;;;;;;16.57;89.65;97843.69;4826637;29;20117;-82
2023/07/03 03:25:33;;;;;;;0.40;0.40;;;;;;;16.62;89.57;97838.91;4857768;29;20081;-81
2023/07/03 03:28:00;;;;;;;0.30;0.30;;;;;;;16.71;89.41;97838.97;4858798;29;20077;-82
2023/07/03 03:30:27;;;;;;;0.40;0.40;;;;;;;16.84;88.91;97854.44;4856676;29;20505;-82
2023/07/03 03:32:54;;;;;;;0.40;0.40;;;;;;;16.97;88.49;97847.28;4824363;29;20137;-82
2023/07/03 03:35:21;;;;;;;0.40;0.40;;;;;;;17.00;87.95;97857.56;4839897;29;20500;-81
2023/07/03 03:37:49;;;;;;;0.40;0.40;;;;;;;17.05;87.94;97868.31;4838951;29;20115;-81
2023/07/03 03:40:16;;;;;;;0.40;0.40;;;;;;;16.98;88.09;97861.72;4840154;29;20431;-82
2023/07/03 03:42:45;;;;;;;0.30;0.30;;;;;;;17.10;87.91;97862.72;4823766;29;20091;-81
2023/07/03 03:45:14;;;;;;;0.40;0.40;;;;;;;17.20;87.16;97875.28;4852958;29;20049;-81
2023/07/03 03:47:41;;;;;;;0.40;0.40;;;;;;;17.20;86.73;97878.00;4841846;29;20061;-82
2023/07/03 03:50:08;;;;;;;0.38;0.38;;;;;;;17.41;86.32;97866.50;4858603;29;20053;-82
2023/07/03 03:52:39;;;;;;;0.40;0.40;;;;;;;17.46;85.65;97885.44;4857309;29;20061;-80
2023/07/03 03:55:12;;;;;;;0.30;0.30;;;;;;;17.38;85.80;97886.25;4841935;29;20069;-80
2023/07/03 03:57:39;;;;;;;0.40;0.40;;;;;;;17.51;85.73;97888.03;4841314;29;20094;-82
2023/07/03 04:00:20;;;;;;;0.40;0.40;;;;;;;17.68;84.80;97888.06;4856595;29;20537;-82
2023/07/03 04:02:48;;;;;;;0.40;0.40;;;;;;;17.75;84.47;97891.13;4857039;29;20069;-82
2023/07/03 04:05:15;;;;;;;0.40;0.40;;;;;;;17.83;83.55;97899.69;4857764;29;20080;-81
2023/07/03 04:07:43;;;;;;;0.40;0.40;;;;;;;17.87;83.63;97909.63;4839608;29;20125;-82
2023/07/03 04:10:11;;;;;;;0.30;0.30;;;;;;;17.96;83.07;97893.28;4839209;29;20052;-82
2023/07/03 04:12:39;;;;;;;0.40;0.40;;;;;;;18.04;82.55;97889.75;4829966;29;20559;-81
2023/07/03 04:15:08;;;;;;;0.40;0.40;;;;;;;18.10;82.45;97899.38;4825995;29;20506;-82
2023/07/03 04:17:36;;;;;;;0.40;0.40;;;;;;;18.18;81.89;97909.53;4831178;29;20106;-82
2023/07/03 04:20:13;;;;;;;0.35;0.35;;;;;;;18.33;81.25;97918.34;4816718;29;20374;-82
2023/07/03 04:22:42;;;;;;;0.30;0.30;;;;;;;18.24;80.85;97915.63;4828269;29;20133;-81
2023/07/03 04:25:09;;;;;;;0.30;0.30;;;;;;;18.12;81.09;97902.59;4820783;29;20157;-80
2023/07/03 04:27:37;;;;;;;0.40;0.40;;;;;;;18.20;80.44;97922.84;4813744;29;20050;-79
2023/07/03 04:30:06;;;;;;;0.30;0.30;;;;;;;18.23;79.58;97927.69;4504761;29;10000097;-80
2023/07/03 04:32:36;;;;;;;0.40;0.40;;;;;;;18.21;79.35;97926.38;4827576;29;20255;-79
2023/07/03 04:35:06;;;;;;;0.30;0.30;;;;;;;18.13;78.99;97933.44;4832930;29;20066;-82
2023/07/03 04:37:34;;;;;;;0.40;0.40;;;;;;;18.16;78.91;97938.25;4831219;29;20046;-82
2023/07/03 04:40:03;;;;;;;0.40;0.40;;;;;;;18.16;78.33;97935.53;4829079;29;20054;-83
2023/07/03 04:42:32;;;;;;;0.40;0.40;;;;;;;18.13;78.06;97933.44;4804264;29;20050;-81
2023/07/03 04:45:01;;;;;;;0.40;0.40;;;;;;;18.05;78.17;97931.50;4826188;29;20563;-81
2023/07/03 04:47:29;;;;;;;0.40;0.40;;;;;;;18.01;78.69;97950.44;4817476;29;20065;-81
2023/07/03 04:49:59;;;;;;;0.35;0.35;;;;;;;18.00;78.59;97943.38;4817901;29;20464;-81
2023/07/03 04:52:27;;;;;;;0.30;0.30;;;;;;;17.94;78.69;97948.19;4816555;29;20149;-83
2023/07/03 04:54:54;;;;;;;0.40;0.40;;;;;;;17.85;78.65;97933.72;4809500;29;20061;-81
2023/07/03 04:57:26;;;;;;;0.40;0.40;;;;;;;18.05;77.76;97954.13;4802271;29;20893;-81
2023/07/03 04:59:55;;;;;;;0.30;0.30;;;;;;;18.11;77.21;97963.78;4818048;29;20121;-81
2023/07/03 05:02:24;;;;;;;0.30;0.30;;;;;;;18.19;77.26;97965.72;4818012;29;20060;-81
2023/07/03 05:04:52;;;;;;;0.40;0.40;;;;;;;18.35;76.08;97965.25;4821738;29;20051;-81
2023/07/03 05:07:19;;;;;;;0.40;0.40;;;;;;;18.37;75.89;97963.00;4822671;29;20065;-81
2023/07/03 05:09:47;;;;;;;0.40;0.40;;;;;;;18.46;75.84;97963.00;4823456;29;20491;-80
2023/07/03 05:12:14;;;;;;;0.30;0.30;;;;;;;18.44;75.89;97982.47;4827956;29;20510;-82
2023/07/03 05:14:44;;;;;;;0.30;0.30;;;;;;;18.39;75.09;97979.88;4842433;29;20486;-83
2023/07/03 05:17:14;;;;;;;0.40;0.40;;;;;;;18.52;74.79;97984.38;4841245;29;20099;-81
2023/07/03 05:19:45;;;;;;;0.40;0.40;;;;;;;18.93;72.94;97990.50;4807843;29;20054;-82
2023/07/03 05:22:12;;;;;;;0.35;0.35;;;;;;;18.74;73.15;97990.81;4841904;29;20056;-81
2023/07/03 05:24:42;;;;;;;0.30;0.30;;;;;;;18.78;73.32;97989.06;4825921;29;20069;-80
2023/07/03 05:27:12;;;;;;;0.40;0.40;;;;;;;19.03;72.32;97993.69;4823669;29;20380;-81
2023/07/03 05:29:39;;;;;;;0.40;0.40;;;;;;;19.20;68.82;97992.84;4823902;29;20054;-81
2023/07/03 05:32:07;;;;;;;0.40;0.40;;;;;;;19.21;68.21;98005.38;4823723;29;20088;-80
2023/07/03 05:34:37;;;;;;;0.40;0.40;;;;;;;19.18;68.32;98007.97;4823683;29;20062;-80
2023/07/03 05:37:08;;;;;;;0.40;0.40;;;;;;;19.40;67.60;98005.03;4823728;29;20058;-81
2023/07/03 05:39:36;;;;;;;0.40;0.40;;;;;;;19.22;67.83;97996.06;4822540;29;20108;-81
2023/07/03 05:42:03;;;;;;;0.40;0.40;;;;;;;19.34;66.95;98008.25;4860136;29;20103;-82
2023/07/03 05:44:30;;;;;;;0.30;0.30;;;;;;;19.26;67.03;97999.75;4860264;29;20140;-81
2023/07/03 05:46:57;;;;;;;0.40;0.40;;;;;;;19.17;66.96;98006.38;4860330;29;20102;-80
2023/07/03 05:49:24;;;;;;;0.40;0.40;;;;;;;19.36;66.03;98016.94;4860130;29;20085;-81
2023/07/03 05:51:51;;;;;;;0.40;0.40;;;;;;;19.51;65.21;98016.41;4843978;29;20052;-81
2023/07/03 05:54:21;;;;;;;0.40;0.40;;;;;;;19.64;64.33;98023.59;4859975;29;20060;-81
2023/07/03 05:56:58;;;;;;;0.40;0.40;;;;;;;19.74;64.01;98038.09;4859964;29;20557;-81
2023/07/03 05:59:26;;;;;;;0.40;0.40;;;;;;;19.89;63.59;98012.91;4860021;29;20077;-81
2023/07/03 06:01:55;;;;;;;0.32;0.32;;;;;;;20.10;62.02;98037.59;4859945;29;20053;-81
2023/07/03 06:04:25;;;;;;;0.40;0.40;;;;;;;19.81;61.82;98043.88;4859865;29;20121;-80
2023/07/03 06:06:53;;;;;;;0.40;0.40;;;;;;;19.88;60.83;98036.75;4843359;29;20057;-80
2023/07/03 06:09:20;;;;;;;0.38;0.38;;;;;;;20.08;59.58;98050.84;4845335;29;20061;-82
2023/07/03 06:11:47;;;;;;;0.40;0.40;;;;;;;19.92;58.80;98058.78;4842053;29;20613;-81
2023/07/03 06:14:18;;;;;;;0.30;0.30;;;;;;;19.83;59.55;98044.34;4841329;29;20046;-81
2023/07/03 06:22:12;;;;;;;0.40;0.40;;;;;;;20.27;57.75;98047.66;5028599;24;20928;-82
2023/07/03 06:24:40;;;;;;;0.40;0.40;;;;;;;20.38;57.54;98051.59;4873174;29;20054;-83
2023/07/03 06:27:07;;;;;;;0.40;0.40;;;;;;;20.46;56.39;98061.72;4860082;29;20049;-80
2023/07/03 06:29:34;;;;;;;0.40;0.40;;;;;;;20.74;55.96;98051.06;4860350;29;20054;-82
2023/07/03 06:32:01;;;;;;;0.30;0.30;;;;;;;20.93;55.75;98060.75;4853673;29;20081;-80
2023/07/03 06:34:28;;;;;;;0.35;0.35;;;;;;;20.85;55.58;98056.16;4845079;29;20054;-82
2023/07/03 06:36:55;;;;;;;0.40;0.40;;;;;;;20.65;55.76;98057.75;4862471;29;20057;-83
2023/07/03 06:39:22;;;;;;;0.40;0.40;;;;;;;20.84;55.27;98054.53;4863527;29;20144;-83
2023/07/03 06:41:49;;;;;;;0.40;0.40;;;;;;;20.97;54.39;98061.69;4864450;29;20425;-82
2023/07/03 06:44:17;;;;;;;0.40;0.40;;;;;;;21.06;53.65;98083.56;4868353;29;20060;-82
2023/07/03 06:46:44;;;;;;;0.40;0.40;;;;;;;20.96;54.44;98066.38;4878228;29;20551;-82
2023/07/03 06:49:12;;;;;;;0.40;0.40;;;;;;;20.88;54.82;98071.94;4861311;29;20461;-82
2023/07/03 06:51:40;;;;;;;0.30;0.30;;;;;;;20.61;55.73;98085.03;4878499;29;20061;-82
2023/07/03 06:54:07;;;;;;;0.40;0.40;;;;;;;20.53;55.86;98074.88;4877044;29;20420;-81
2023/07/03 06:56:34;;;;;;;0.40;0.40;;;;;;;20.85;52.69;98098.06;4878335;29;20144;-82
2023/07/03 06:59:04;;;;;;;0.30;0.30;;;;;;;20.68;50.38;98096.25;4876895;29;20055;-82
2023/07/03 07:01:31;;;;;;;0.40;0.40;;;;;;;20.73;50.69;98093.31;4868522;29;20077;-82
2023/07/03 07:03:59;;;;;;;0.30;0.30;;;;;;;20.97;50.78;98108.31;4860640;29;20517;-82
2023/07/03 07:06:29;;;;;;;0.30;0.30;;;;;;;20.97;50.61;98086.38;4859896;29;20057;-82
2023/07/03 07:08:59;;;;;;;0.30;0.30;;;;;;;21.18;50.15;98089.91;4859452;29;20060;-82
2023/07/03 07:11:31;;;;;;;0.30;0.30;;;;;;;21.06;51.17;98094.53;4859383;29;20060;-84
2023/07/03 07:14:00;;;;;;;0.30;0.30;;;;;;;21.05;51.70;98088.25;4860944;29;20113;-82
2023/07/03 07:16:31;;;;;;;0.40;0.40;;;;;;;21.12;51.58;98104.19;4877820;29;20056;-81
2023/07/03 07:19:02;;;;;;;0.40;0.40;;;;;;;21.21;50.90;98099.41;4877788;29;20074;-81
2023/07/03 07:21:31;;;;;;;0.40;0.40;;;;;;;21.34;49.99;98111.22;4859096;29;20049;-82
2023/07/03 07:24:11;;;;;;;0.40;0.40;;;;;;;21.52;49.79;98114.63;4859117;29;20087;-82
2023/07/03 07:26:38;;;;;;;0.40;0.40;;;;;;;21.48;48.93;98119.22;4858758;29;20057;-82
2023/07/03 07:29:05;;;;;;;0.35;0.35;;;;;;;21.77;49.41;98119.03;4842204;29;20077;-81
2023/07/03 07:31:36;;;;;;;0.30;0.30;;;;;;;21.69;49.76;98116.41;4859195;29;20051;-82
2023/07/03 07:34:08;;;;;;;0.40;0.40;;;;;;;21.91;49.50;98118.75;4859290;29;20390;-80
2023/07/03 07:36:38;;;;;;;0.40;0.40;;;;;;;22.29;48.85;98112.97;4844678;29;20062;-81
2023/07/03 07:39:06;;;;;;;0.30;0.30;;;;;;;22.45;47.41;98126.81;4809610;29;20458;-82
2023/07/03 07:41:34;;;;;;;0.30;0.30;;;;;;;22.01;47.34;98126.53;4840480;29;20436;-82
2023/07/03 07:44:01;;;;;;;0.30;0.30;;;;;;;21.93;47.27;98126.66;4808898;29;20062;-82
2023/07/03 07:46:30;;;;;;;0.40;0.40;;;;;;;22.29;47.43;98131.41;4840281;29;20110;-83
2023/07/03 07:49:00;;;;;;;0.40;0.40;;;;;;;22.55;46.26;98131.06;4841756;29;20074;-82
2023/07/03 07:51:28;;;;;;;0.30;0.30;;;;;;;22.43;45.46;98137.38;4858330;29;20094;-81
2023/07/03 07:53:57;;;;;;;0.30;0.30;;;;;;;21.95;46.07;98140.81;4858132;29;20105;-82
2023/07/03 07:56:26;;;;;;;0.50;0.50;;;;;;;21.85;47.01;98147.56;4858486;29;20077;-82
2023/07/03 07:58:54;;;;;;;0.40;0.40;;;;;;;21.96;46.86;98153.44;4858886;29;20065;-82
2023/07/03 08:01:21;;;;;;;0.40;0.40;;;;;;;22.23;46.14;98146.50;4858363;29;20421;-82
2023/07/03 08:03:48;;;;;;;0.50;0.50;;;;;;;22.56;44.42;98170.34;4858554;29;20053;-81
2023/07/03 08:06:17;;;;;;;0.47;0.47;;;;;;;22.47;44.63;98157.50;4857845;29;20136;-82
2023/07/03 08:08:48;;;;;;;0.40;0.40;;;;;;;22.84;44.38;98157.50;4858439;29;20121;-83
2023/07/03 08:11:15;;;;;;;0.40;0.40;;;;;;;23.52;43.30;98172.47;4858127;29;20512;-82
2023/07/03 08:13:42;;;;;;;0.40;0.40;;;;;;;23.30;43.02;98163.59;4841557;29;20049;-80
2023/07/03 08:16:11;;;;;;;0.30;0.30;;;;;;;23.51;42.54;98179.13;4857736;29;20053;-83
2023/07/03 08:18:41;;;;;;;0.30;0.30;;;;;;;23.42;42.42;98173.78;4842521;29;20125;-82
2023/07/03 08:21:08;;;;;;;0.30;0.30;;;;;;;22.78;44.77;98169.06;4858402;29;20118;-81
2023/07/03 08:23:36;;;;;;;0.40;0.40;;;;;;;22.35;44.70;98196.00;4841621;29;20066;-82
2023/07/03 08:26:03;;;;;;;0.50;0.50;;;;;;;22.65;43.09;98191.06;4852995;29;20049;-83
2023/07/03 08:28:30;;;;;;;0.50;0.50;;;;;;;22.63;43.06;98187.06;4839868;29;20066;-81
2023/07/03 08:31:07;;;;;;;0.50;0.50;;;;;;;22.28;43.09;98191.06;4839155;29;20062;-81
2023/07/03 08:33:34;;;;;;;0.60;0.60;;;;;;;22.92;42.85;98189.56;4839904;29;20054;-82
2023/07/03 08:36:01;;;;;;;0.30;0.30;;;;;;;22.90;42.28;98199.31;4828184;29;20055;-82
2023/07/03 08:38:31;;;;;;;0.50;0.50;;;;;;;22.86;42.70;98204.69;4822592;29;20058;-81
2023/07/03 08:41:01;;;;;;;0.32;0.32;;;;;;;22.75;43.52;98203.56;4821497;29;20062;-80
2023/07/03 08:43:41;;;;;;;0.50;0.50;;;;;;;23.21;42.34;98198.72;4823276;29;20145;-82
2023/07/03 08:46:10;;;;;;;0.40;0.40;;;;;;;23.35;41.98;98218.41;4825790;29;20089;-82
2023/07/03 08:48:39;;;;;;;0.40;0.40;;;;;;;22.79;42.69;98199.00;4825096;29;20111;-81
2023/07/03 08:51:12;;;;;;;0.50;0.50;;;;;;;23.54;39.03;98200.47;4824000;29;20050;-82
2023/07/03 08:53:41;;;;;;;0.30;0.30;;;;;;;24.00;38.57;98204.53;4823662;29;20146;-82
2023/07/03 08:56:18;;;;;;;0.28;0.28;;;;;;;24.23;38.40;98214.94;4824792;29;20126;-83
2023/07/03 08:58:46;;;;;;;0.30;0.30;;;;;;;23.46;40.08;98227.00;4840593;29;20053;-82
2023/07/03 09:01:41;;;;;;;0.50;0.50;;;;;;;23.43;39.98;98218.63;4861257;29;20105;-83
2023/07/03 09:04:09;;;;;;;0.30;0.30;;;;;;;23.20;39.85;98221.91;4844684;29;20061;-83
2023/07/03 09:06:50;;;;;;;0.50;0.50;;;;;;;23.28;39.56;98240.22;4861839;29;20512;-80
2023/07/03 09:09:28;;;;;;;0.50;0.50;;;;;;;23.61;39.02;98239.22;4831975;29;20050;-82
2023/07/03 09:12:01;;;;;;;0.50;0.50;;;;;;;24.22;37.59;98230.69;4844870;29;20053;-81
2023/07/03 09:14:37;;;;;;;0.50;0.50;;;;;;;24.25;36.17;98242.97;4844631;29;20049;-82
2023/07/03 09:17:08;;;;;;;0.50;0.50;;;;;;;24.38;34.70;98263.81;4829256;29;20050;-81
2023/07/03 09:19:37;;;;;;;0.50;0.50;;;;;;;24.22;33.84;98233.44;4861140;29;20057;-82
2023/07/03 09:22:06;;;;;;;0.50;0.50;;;;;;;24.47;33.02;98233.34;4844625;29;20473;-81
2023/07/03 09:24:37;;;;;;;0.50;0.50;;;;;;;25.14;31.31;98260.16;4861104;29;20053;-81
2023/07/03 09:27:14;;;;;;;0.60;0.60;;;;;;;25.22;31.84;98261.94;4834652;29;20085;-83
2023/07/03 09:29:42;;;;;;;0.52;0.52;;;;;;;25.68;31.88;98256.66;4842853;29;20065;-82
2023/07/03 09:32:26;;;;;;;0.50;0.50;;;;;;;25.82;32.42;98270.75;4833923;29;20513;-81
2023/07/03 09:35:03;;;;;;;0.60;0.60;;;;;;;25.51;32.74;98269.72;4840653;29;20058;-82
2023/07/03 09:37:42;;;;;;;0.50;0.50;;;;;;;25.64;33.35;98266.81;4842580;29;20054;-82
2023/07/03 09:40:31;;;;;;;0.60;0.60;;;;;;;26.31;32.72;98289.53;4842277;29;20647;-82
2023/07/03 09:43:01;;;;;;;0.20;0.20;;;;;;;24.44;34.76;98275.38;4842579;29;20060;-81
2023/07/03 09:45:34;;;;;;;0.60;0.60;;;;;;;24.85;34.74;98276.84;4842428;29;20481;-82
2023/07/03 09:48:03;;;;;;;0.20;0.20;;;;;;;24.62;34.11;98268.41;4825354;29;20062;-82
2023/07/03 09:50:35;;;;;;;0.70;0.70;;;;;;;24.67;34.48;98269.28;4841832;29;20084;-82
2023/07/03 09:53:04;;;;;;;0.60;0.60;;;;;;;25.45;33.33;98292.47;4841823;29;20046;-82
2023/07/03 09:55:36;;;;;;;0.60;0.60;;;;;;;26.16;32.58;98276.59;4825279;29;20053;-82
2023/07/03 09:58:16;;;;;;;0.60;0.60;;;;;;;25.93;32.18;98277.34;4841853;29;20145;-80
2023/07/03 10:00:54;;;;;;;0.60;0.60;;;;;;;26.61;31.50;98299.94;4842244;29;20146;-82
2023/07/03 10:03:29;;;;;;;0.60;0.60;;;;;;;26.66;31.47;98280.28;4835864;29;20632;-83
2023/07/03 10:06:15;;;;;;;0.60;0.60;;;;;;;27.69;29.85;98298.88;4821570;29;20587;-82
2023/07/03 10:08:49;;;;;;;0.52;0.52;;;;;;;28.00;29.44;98295.75;4835277;29;20081;-84
2023/07/03 10:12:18;;;;;;;0.50;0.50;;;;;;;26.32;30.83;98298.63;4833583;29;20064;-85
2023/07/03 10:15:16;;;;;;;0.20;0.20;;;;;;;24.68;33.51;98287.44;4823488;29;20062;-83
2023/07/03 10:17:47;;;;;;;0.20;0.20;;;;;;;25.14;33.05;98305.13;4813662;29;20062;-83
2023/07/03 10:20:21;;;;;;;0.60;0.60;;;;;;;25.28;33.09;98299.97;4820431;29;20081;-83
2023/07/03 10:22:56;;;;;;;0.30;0.30;;;;;;;25.20;32.41;98294.66;4808589;29;20352;-83
2023/07/03 10:25:36;;;;;;;0.30;0.30;;;;;;;24.56;32.72;98315.88;4834592;29;20192;-84
2023/07/03 10:28:28;;;;;;;0.30;0.30;;;;;;;24.04;33.33;98298.31;4656960;29;10000721;-85
2023/07/03 10:30:58;;;;;;;0.30;0.30;;;;;;;24.60;32.88;98303.00;4826356;29;20359;-82
2023/07/03 10:33:30;;;;;;;0.30;0.30;;;;;;;24.67;33.41;98300.44;4818924;29;20790;-83
2023/07/03 10:35:57;;;;;;;0.30;0.30;;;;;;;25.36;32.63;98303.69;4826994;29;20521;-83
2023/07/03 10:38:32;;;;;;;0.30;0.30;;;;;;;25.05;33.79;98307.28;4824002;29;20058;-82
2023/07/03 10:41:03;;;;;;;0.30;0.30;;;;;;;24.62;34.36;98312.53;4810347;29;20513;-83
2023/07/03 10:43:36;;;;;;;0.70;0.70;;;;;;;26.62;32.06;98312.63;4841789;29;20102;-82
2023/07/03 10:46:08;;;;;;;0.40;0.40;;;;;;;27.74;30.99;98313.22;4828694;29;20066;-85
2023/07/03 10:48:36;;;;;;;0.60;0.60;;;;;;;27.84;31.00;98323.66;4824543;29;20158;-83
2023/07/03 10:51:19;;;;;;;0.20;0.20;;;;;;;26.51;32.44;98317.94;4821645;29;20561;-86
2023/07/03 10:54:36;;;;;;;0.20;0.20;;;;;;;24.92;34.93;98328.66;4832823;29;20201;-84
2023/07/03 10:57:05;;;;;;;0.70;0.70;;;;;;;25.27;34.85;98341.78;4818897;29;20144;-83
2023/07/03 10:59:36;;;;;;;0.60;0.60;;;;;;;26.87;32.37;98345.50;4827753;29;20053;-85
2023/07/03 11:02:03;;;;;;;0.60;0.60;;;;;;;27.82;31.10;98342.66;4819017;29;20055;-83
2023/07/03 11:04:31;;;;;;;0.60;0.60;;;;;;;28.59;29.57;98350.72;4824967;29;20093;-84
2023/07/03 11:07:08;;;;;;;0.20;0.20;;;;;;;27.15;30.74;98329.34;4821554;29;20050;-83
2023/07/03 11:09:40;;;;;;;0.70;0.70;;;;;;;27.30;30.65;98354.53;4819148;29;20110;-83
2023/07/03 11:12:26;;;;;;;0.60;0.60;;;;;;;28.28;29.72;98359.09;4818186;29;20062;-83
2023/07/03 11:15:07;;;;;;;0.60;0.60;;;;;;;28.74;28.78;98335.81;4829567;29;20058;-84
2023/07/03 11:17:47;;;;;;;0.60;0.60;;;;;;;29.02;28.10;98348.34;4825933;29;20062;-84
2023/07/03 11:20:26;;;;;;;0.40;0.40;;;;;;;27.78;29.49;98358.44;4835590;29;20614;-84
2023/07/03 11:23:21;;;;;;;0.20;0.20;;;;;;;27.14;29.95;98349.88;4838849;29;20061;-84
2023/07/03 11:25:54;;;;;;;0.20;0.20;;;;;;;25.76;31.89;98357.09;4840984;29;20084;-84
2023/07/03 11:28:35;;;;;;;0.20;0.20;;;;;;;26.70;30.27;98352.31;4822360;29;20062;-82
2023/07/03 11:31:04;;;;;;;0.57;0.57;;;;;;;28.26;28.98;98347.56;4824247;29;20069;-84
2023/07/03 11:33:33;;;;;;;0.60;0.60;;;;;;;29.11;27.60;98369.09;4824627;29;20054;-83
2023/07/03 11:36:04;;;;;;;0.60;0.60;;;;;;;28.93;26.87;98374.47;4819955;29;20049;-83
2023/07/03 11:38:34;;;;;;;0.35;0.35;;;;;;;28.32;27.85;98370.22;4822534;29;20422;-84
2023/07/03 11:41:08;;;;;;;0.50;0.50;;;;;;;28.87;27.46;98348.25;4838624;29;20060;-83
2023/07/03 11:43:55;;;;;;;0.60;0.60;;;;;;;29.20;26.85;98357.69;4819467;29;20053;-83
2023/07/03 11:46:24;;;;;;;0.52;0.52;;;;;;;28.84;26.75;98357.34;4831305;29;20111;-81
2023/07/03 11:48:56;;;;;;;0.60;0.60;;;;;;;27.67;28.37;98351.91;4833010;29;20100;-83
2023/07/03 11:51:35;;;;;;;0.70;0.70;;;;;;;28.31;27.52;98365.88;4810811;29;20145;-81
2023/07/03 11:54:18;;;;;;;0.50;0.50;;;;;;;29.51;26.44;98356.31;4829610;29;20100;-83
2023/07/03 11:56:50;;;;;;;0.60;0.60;;;;;;;28.26;27.40;98377.31;4832400;29;20157;-82